sensor_id;sensor_type;location;lat;lon;timestamp;P1;durP1;ratioP1;P2;durP2;ratioP2
8001;SDS011;4046;48.774;8.732;2023-07-20T00:01:24;2.43;;;2.17;;
8001;SDS011;4046;48.774;8.732;2023-07-20T00:03:49;2.63;;;2.43;;
8001;SDS011;4046;48.774;8.732;2023-07-20T00:06:29;2.83;;;2.00;;
8001;SDS011;4046;48.774;8.732;2023-07-20T00:08:55;3.03;;;1.87;;
8001;SDS011;4046;48.774;8.732;2023-07-20T00:11:21;2.10;;;2.00;;
8001;SDS011;4046;48.774;8.732;2023-07-20T00:13:51;2.20;;;2.00;;
8001;SDS011;4046;48.774;8.732;2023-07-20T00:16:17;2.40;;;1.97;;
8001;SDS011;4046;48.774;8.732;2023-07-20T00:18:43;2.00;;;1.90;;
8001;SDS011;4046;48.774;8.732;2023-07-20T00:21:08;2.47;;;2.27;;
8001;SDS011;4046;48.774;8.732;2023-07-20T00:23:34;2.57;;;2.37;;
8001;SDS011;4046;48.774;8.732;2023-07-20T00:26:00;2.57;;;2.37;;
8001;SDS011;4046;48.774;8.732;2023-07-20T00:28:26;2.10;;;1.97;;
8001;SDS011;4046;48.774;8.732;2023-07-20T00:30:51;2.20;;;2.00;;
8001;SDS011;4046;48.774;8.732;2023-07-20T00:33:17;2.50;;;2.30;;
8001;SDS011;4046;48.774;8.732;2023-07-20T00:35:43;2.53;;;2.00;;
8001;SDS011;4046;48.774;8.732;2023-07-20T00:38:09;2.50;;;2.30;;
8001;SDS011;4046;48.774;8.732;2023-07-20T00:40:36;2.37;;;2.17;;
8001;SDS011;4046;48.774;8.732;2023-07-20T00:43:03;2.30;;;2.10;;
8001;SDS011;4046;48.774;8.732;2023-07-20T00:45:29;2.40;;;2.30;;
8001;SDS011;4046;48.774;8.732;2023-07-20T00:47:55;2.07;;;1.97;;
8001;SDS011;4046;48.774;8.732;2023-07-20T00:50:21;2.33;;;2.13;;
8001;SDS011;4046;48.774;8.732;2023-07-20T00:52:47;2.40;;;2.23;;
8001;SDS011;4046;48.774;8.732;2023-07-20T00:55:14;2.03;;;1.93;;
8001;SDS011;4046;48.774;8.732;2023-07-20T00:57:40;2.00;;;1.90;;
8001;SDS011;4046;48.774;8.732;2023-07-20T01:00:06;2.30;;;2.10;;
8001;SDS011;4046;48.774;8.732;2023-07-20T01:02:32;2.17;;;1.97;;
8001;SDS011;4046;48.774;8.732;2023-07-20T01:04:58;2.17;;;2.00;;
8001;SDS011;4046;48.774;8.732;2023-07-20T01:12:58;2.83;;;2.47;;
8001;SDS011;4046;48.774;8.732;2023-07-20T01:15:27;2.30;;;2.10;;
8001;SDS011;4046;48.774;8.732;2023-07-20T01:17:52;2.27;;;2.10;;
8001;SDS011;4046;48.774;8.732;2023-07-20T01:20:19;2.40;;;2.20;;
8001;SDS011;4046;48.774;8.732;2023-07-20T01:31:32;1.90;;;1.80;;
8001;SDS011;4046;48.774;8.732;2023-07-20T01:34:00;2.03;;;1.83;;
8001;SDS011;4046;48.774;8.732;2023-07-20T01:36:28;2.17;;;2.07;;
8001;SDS011;4046;48.774;8.732;2023-07-20T01:38:58;2.37;;;2.07;;
8001;SDS011;4046;48.774;8.732;2023-07-20T01:41:24;2.40;;;2.20;;
8001;SDS011;4046;48.774;8.732;2023-07-20T01:43:50;2.33;;;2.13;;
8001;SDS011;4046;48.774;8.732;2023-07-20T01:46:15;2.27;;;2.07;;
8001;SDS011;4046;48.774;8.732;2023-07-20T01:48:41;2.23;;;2.03;;
8001;SDS011;4046;48.774;8.732;2023-07-20T01:51:07;2.00;;;1.90;;
8001;SDS011;4046;48.774;8.732;2023-07-20T01:53:33;2.20;;;2.00;;
8001;SDS011;4046;48.774;8.732;2023-07-20T01:55:59;2.47;;;2.27;;
8001;SDS011;4046;48.774;8.732;2023-07-20T01:58:24;2.07;;;1.93;;
8001;SDS011;4046;48.774;8.732;2023-07-20T02:00:50;2.37;;;2.17;;
8001;SDS011;4046;48.774;8.732;2023-07-20T02:03:16;2.60;;;2.40;;
8001;SDS011;4046;48.774;8.732;2023-07-20T02:05:42;2.30;;;2.10;;
8001;SDS011;4046;48.774;8.732;2023-07-20T02:08:08;2.10;;;1.90;;
8001;SDS011;4046;48.774;8.732;2023-07-20T02:10:35;3.60;;;2.33;;
8001;SDS011;4046;48.774;8.732;2023-07-20T02:13:01;1.80;;;1.70;;
8001;SDS011;4046;48.774;8.732;2023-07-20T02:15:26;2.13;;;2.03;;
8001;SDS011;4046;48.774;8.732;2023-07-20T02:17:53;2.30;;;2.20;;
8001;SDS011;4046;48.774;8.732;2023-07-20T02:20:19;2.60;;;1.77;;
8001;SDS011;4046;48.774;8.732;2023-07-20T02:22:45;2.23;;;2.03;;
8001;SDS011;4046;48.774;8.732;2023-07-20T02:25:10;2.33;;;2.13;;
8001;SDS011;4046;48.774;8.732;2023-07-20T02:27:37;2.40;;;2.20;;
8001;SDS011;4046;48.774;8.732;2023-07-20T02:30:03;2.43;;;2.20;;
8001;SDS011;4046;48.774;8.732;2023-07-20T02:32:29;2.10;;;2.00;;
8001;SDS011;4046;48.774;8.732;2023-07-20T02:34:55;2.07;;;1.97;;
8001;SDS011;4046;48.774;8.732;2023-07-20T02:37:21;2.00;;;1.90;;
8001;SDS011;4046;48.774;8.732;2023-07-20T02:39:47;2.43;;;2.30;;
8001;SDS011;4046;48.774;8.732;2023-07-20T02:42:12;2.40;;;2.30;;
8001;SDS011;4046;48.774;8.732;2023-07-20T02:44:39;1.90;;;1.80;;
8001;SDS011;4046;48.774;8.732;2023-07-20T02:47:05;2.43;;;2.23;;
8001;SDS011;4046;48.774;8.732;2023-07-20T02:49:31;2.10;;;2.00;;
8001;SDS011;4046;48.774;8.732;2023-07-20T02:51:57;2.50;;;2.30;;
8001;SDS011;4046;48.774;8.732;2023-07-20T02:54:22;1.80;;;1.70;;
8001;SDS011;4046;48.774;8.732;2023-07-20T02:56:48;2.00;;;1.90;;
8001;SDS011;4046;48.774;8.732;2023-07-20T02:59:14;1.77;;;1.67;;
8001;SDS011;4046;48.774;8.732;2023-07-20T03:01:40;1.90;;;1.70;;
8001;SDS011;4046;48.774;8.732;2023-07-20T03:04:07;1.97;;;1.87;;
8001;SDS011;4046;48.774;8.732;2023-07-20T03:06:35;2.50;;;2.30;;
8001;SDS011;4046;48.774;8.732;2023-07-20T03:09:01;1.73;;;1.63;;
8001;SDS011;4046;48.774;8.732;2023-07-20T03:11:28;2.33;;;2.13;;
8001;SDS011;4046;48.774;8.732;2023-07-20T03:13:54;2.57;;;1.97;;
8001;SDS011;4046;48.774;8.732;2023-07-20T03:16:20;2.30;;;2.00;;
8001;SDS011;4046;48.774;8.732;2023-07-20T03:18:46;1.80;;;1.70;;
8001;SDS011;4046;48.774;8.732;2023-07-20T03:21:12;2.40;;;2.20;;
8001;SDS011;4046;48.774;8.732;2023-07-20T03:23:38;2.07;;;1.90;;
8001;SDS011;4046;48.774;8.732;2023-07-20T03:26:05;2.00;;;1.90;;
8001;SDS011;4046;48.774;8.732;2023-07-20T03:28:33;2.33;;;2.07;;
8001;SDS011;4046;48.774;8.732;2023-07-20T03:31:00;2.13;;;1.93;;
8001;SDS011;4046;48.774;8.732;2023-07-20T03:33:26;2.50;;;2.30;;
8001;SDS011;4046;48.774;8.732;2023-07-20T03:35:54;2.30;;;2.10;;
8001;SDS011;4046;48.774;8.732;2023-07-20T03:38:20;1.93;;;1.83;;
8001;SDS011;4046;48.774;8.732;2023-07-20T03:40:56;1.90;;;1.80;;
8001;SDS011;4046;48.774;8.732;2023-07-20T03:43:24;2.00;;;1.90;;
8001;SDS011;4046;48.774;8.732;2023-07-20T03:45:53;1.90;;;1.80;;
8001;SDS011;4046;48.774;8.732;2023-07-20T03:48:20;2.20;;;2.10;;
8001;SDS011;4046;48.774;8.732;2023-07-20T03:50:48;1.87;;;1.77;;
8001;SDS011;4046;48.774;8.732;2023-07-20T03:53:15;1.80;;;1.70;;
8001;SDS011;4046;48.774;8.732;2023-07-20T03:55:44;2.27;;;2.10;;
8001;SDS011;4046;48.774;8.732;2023-07-20T03:58:11;2.03;;;1.93;;
8001;SDS011;4046;48.774;8.732;2023-07-20T04:00:38;2.03;;;1.93;;
8001;SDS011;4046;48.774;8.732;2023-07-20T04:03:03;2.30;;;2.10;;
8001;SDS011;4046;48.774;8.732;2023-07-20T04:05:29;2.10;;;2.00;;
8001;SDS011;4046;48.774;8.732;2023-07-20T04:07:55;2.40;;;2.20;;
8001;SDS011;4046;48.774;8.732;2023-07-20T04:10:20;1.97;;;1.87;;
8001;SDS011;4046;48.774;8.732;2023-07-20T04:12:46;1.90;;;1.80;;
8001;SDS011;4046;48.774;8.732;2023-07-20T04:15:12;1.90;;;1.80;;
8001;SDS011;4046;48.774;8.732;2023-07-20T04:17:39;2.00;;;1.90;;
8001;SDS011;4046;48.774;8.732;2023-07-20T04:20:06;1.90;;;1.80;;
8001;SDS011;4046;48.774;8.732;2023-07-20T04:22:33;1.93;;;1.83;;
8001;SDS011;4046;48.774;8.732;2023-07-20T04:24:59;1.77;;;1.67;;
8001;SDS011;4046;48.774;8.732;2023-07-20T04:27:24;2.77;;;1.90;;
8001;SDS011;4046;48.774;8.732;2023-07-20T04:29:51;2.00;;;1.80;;
8001;SDS011;4046;48.774;8.732;2023-07-20T04:32:17;2.57;;;2.37;;
8001;SDS011;4046;48.774;8.732;2023-07-20T04:34:43;2.00;;;1.90;;
8001;SDS011;4046;48.774;8.732;2023-07-20T04:37:08;2.23;;;2.13;;
8001;SDS011;4046;48.774;8.732;2023-07-20T04:39:34;2.13;;;2.03;;
8001;SDS011;4046;48.774;8.732;2023-07-20T04:42:00;1.90;;;1.80;;
8001;SDS011;4046;48.774;8.732;2023-07-20T04:44:26;2.17;;;1.87;;
8001;SDS011;4046;48.774;8.732;2023-07-20T04:46:51;2.60;;;2.00;;
8001;SDS011;4046;48.774;8.732;2023-07-20T04:49:17;2.00;;;1.90;;
8001;SDS011;4046;48.774;8.732;2023-07-20T04:51:43;2.50;;;1.97;;
8001;SDS011;4046;48.774;8.732;2023-07-20T04:54:08;2.13;;;2.03;;
8001;SDS011;4046;48.774;8.732;2023-07-20T04:56:34;2.20;;;2.00;;
8001;SDS011;4046;48.774;8.732;2023-07-20T04:59:00;2.10;;;2.00;;
8001;SDS011;4046;48.774;8.732;2023-07-20T05:01:25;2.03;;;1.93;;
8001;SDS011;4046;48.774;8.732;2023-07-20T05:03:54;2.07;;;1.97;;
8001;SDS011;4046;48.774;8.732;2023-07-20T05:06:20;2.10;;;1.80;;
8001;SDS011;4046;48.774;8.732;2023-07-20T05:08:45;2.03;;;1.93;;
8001;SDS011;4046;48.774;8.732;2023-07-20T05:11:11;1.90;;;1.80;;
8001;SDS011;4046;48.774;8.732;2023-07-20T05:13:37;1.93;;;1.80;;
8001;SDS011;4046;48.774;8.732;2023-07-20T05:16:03;1.73;;;1.60;;
8001;SDS011;4046;48.774;8.732;2023-07-20T05:18:29;1.80;;;1.70;;
8001;SDS011;4046;48.774;8.732;2023-07-20T05:20:55;2.40;;;2.20;;
8001;SDS011;4046;48.774;8.732;2023-07-20T05:23:21;2.20;;;2.00;;
8001;SDS011;4046;48.774;8.732;2023-07-20T05:25:47;2.10;;;1.90;;
8001;SDS011;4046;48.774;8.732;2023-07-20T05:28:23;2.00;;;1.90;;
8001;SDS011;4046;48.774;8.732;2023-07-20T05:30:49;2.40;;;2.20;;
8001;SDS011;4046;48.774;8.732;2023-07-20T05:33:17;1.90;;;1.70;;
8001;SDS011;4046;48.774;8.732;2023-07-20T05:35:43;1.93;;;1.83;;
8001;SDS011;4046;48.774;8.732;2023-07-20T05:38:09;2.07;;;1.97;;
8001;SDS011;4046;48.774;8.732;2023-07-20T05:40:39;1.90;;;1.80;;
8001;SDS011;4046;48.774;8.732;2023-07-20T05:43:07;1.97;;;1.80;;
8001;SDS011;4046;48.774;8.732;2023-07-20T05:45:32;2.17;;;2.00;;
8001;SDS011;4046;48.774;8.732;2023-07-20T05:47:58;2.10;;;1.90;;
8001;SDS011;4046;48.774;8.732;2023-07-20T05:50:24;2.37;;;2.17;;
8001;SDS011;4046;48.774;8.732;2023-07-20T05:52:52;2.13;;;2.03;;
8001;SDS011;4046;48.774;8.732;2023-07-20T05:55:17;2.17;;;1.97;;
8001;SDS011;4046;48.774;8.732;2023-07-20T05:57:43;1.80;;;1.70;;
8001;SDS011;4046;48.774;8.732;2023-07-20T06:00:09;2.13;;;2.03;;
8001;SDS011;4046;48.774;8.732;2023-07-20T06:02:35;2.07;;;1.93;;
8001;SDS011;4046;48.774;8.732;2023-07-20T06:05:01;2.10;;;2.00;;
8001;SDS011;4046;48.774;8.732;2023-07-20T06:07:27;2.20;;;2.10;;
8001;SDS011;4046;48.774;8.732;2023-07-20T06:09:52;1.93;;;1.83;;
8001;SDS011;4046;48.774;8.732;2023-07-20T06:12:18;2.30;;;1.77;;
8001;SDS011;4046;48.774;8.732;2023-07-20T06:14:44;2.00;;;1.80;;
8001;SDS011;4046;48.774;8.732;2023-07-20T06:17:10;2.03;;;1.93;;
8001;SDS011;4046;48.774;8.732;2023-07-20T06:19:36;1.60;;;1.50;;
8001;SDS011;4046;48.774;8.732;2023-07-20T06:22:02;2.33;;;2.13;;
8001;SDS011;4046;48.774;8.732;2023-07-20T06:24:27;2.43;;;2.20;;
8001;SDS011;4046;48.774;8.732;2023-07-20T06:26:53;1.90;;;1.80;;
8001;SDS011;4046;48.774;8.732;2023-07-20T06:29:19;1.73;;;1.63;;
8001;SDS011;4046;48.774;8.732;2023-07-20T06:31:44;2.27;;;2.10;;
8001;SDS011;4046;48.774;8.732;2023-07-20T06:34:10;2.40;;;2.30;;
8001;SDS011;4046;48.774;8.732;2023-07-20T06:36:35;1.90;;;1.73;;
8001;SDS011;4046;48.774;8.732;2023-07-20T06:39:01;2.10;;;2.00;;
8001;SDS011;4046;48.774;8.732;2023-07-20T06:41:27;1.90;;;1.80;;
8001;SDS011;4046;48.774;8.732;2023-07-20T06:43:53;2.00;;;1.90;;
8001;SDS011;4046;48.774;8.732;2023-07-20T06:46:23;2.07;;;1.97;;
8001;SDS011;4046;48.774;8.732;2023-07-20T06:48:52;1.80;;;1.70;;
8001;SDS011;4046;48.774;8.732;2023-07-20T06:51:22;2.00;;;1.80;;
8001;SDS011;4046;48.774;8.732;2023-07-20T06:53:47;2.10;;;1.90;;
8001;SDS011;4046;48.774;8.732;2023-07-20T06:56:13;2.27;;;2.07;;
8001;SDS011;4046;48.774;8.732;2023-07-20T06:58:39;1.87;;;1.77;;
8001;SDS011;4046;48.774;8.732;2023-07-20T07:01:05;1.97;;;1.87;;
8001;SDS011;4046;48.774;8.732;2023-07-20T07:03:32;2.23;;;2.13;;
8001;SDS011;4046;48.774;8.732;2023-07-20T07:05:58;1.97;;;1.87;;
8001;SDS011;4046;48.774;8.732;2023-07-20T07:08:24;2.10;;;1.90;;
8001;SDS011;4046;48.774;8.732;2023-07-20T07:10:49;2.07;;;1.97;;
8001;SDS011;4046;48.774;8.732;2023-07-20T07:13:15;1.93;;;1.83;;
8001;SDS011;4046;48.774;8.732;2023-07-20T07:15:42;2.23;;;2.00;;
8001;SDS011;4046;48.774;8.732;2023-07-20T07:18:08;2.13;;;1.93;;
8001;SDS011;4046;48.774;8.732;2023-07-20T07:20:34;2.27;;;1.70;;
8001;SDS011;4046;48.774;8.732;2023-07-20T07:23:00;2.03;;;1.80;;
8001;SDS011;4046;48.774;8.732;2023-07-20T07:25:25;1.87;;;1.77;;
8001;SDS011;4046;48.774;8.732;2023-07-20T07:27:52;2.07;;;1.97;;
8001;SDS011;4046;48.774;8.732;2023-07-20T07:30:19;1.97;;;1.87;;
8001;SDS011;4046;48.774;8.732;2023-07-20T07:32:45;1.80;;;1.70;;
8001;SDS011;4046;48.774;8.732;2023-07-20T07:35:11;2.20;;;2.10;;
8001;SDS011;4046;48.774;8.732;2023-07-20T07:37:37;2.30;;;2.20;;
8001;SDS011;4046;48.774;8.732;2023-07-20T07:40:03;2.00;;;1.90;;
8001;SDS011;4046;48.774;8.732;2023-07-20T07:42:31;1.87;;;1.77;;
8001;SDS011;4046;48.774;8.732;2023-07-20T07:44:59;1.83;;;1.73;;
8001;SDS011;4046;48.774;8.732;2023-07-20T07:47:25;2.70;;;2.23;;
8001;SDS011;4046;48.774;8.732;2023-07-20T07:49:51;2.00;;;1.80;;
8001;SDS011;4046;48.774;8.732;2023-07-20T07:52:16;1.70;;;1.60;;
8001;SDS011;4046;48.774;8.732;2023-07-20T07:54:42;2.00;;;1.90;;
8001;SDS011;4046;48.774;8.732;2023-07-20T07:57:08;1.70;;;1.60;;
8001;SDS011;4046;48.774;8.732;2023-07-20T07:59:34;2.17;;;1.97;;
8001;SDS011;4046;48.774;8.732;2023-07-20T08:02:02;1.80;;;1.70;;
8001;SDS011;4046;48.774;8.732;2023-07-20T08:04:29;2.00;;;1.90;;
8001;SDS011;4046;48.774;8.732;2023-07-20T08:06:55;1.97;;;1.77;;
8001;SDS011;4046;48.774;8.732;2023-07-20T08:09:21;1.90;;;1.80;;
8001;SDS011;4046;48.774;8.732;2023-07-20T08:11:47;2.37;;;1.93;;
8001;SDS011;4046;48.774;8.732;2023-07-20T08:14:13;1.90;;;1.80;;
8001;SDS011;4046;48.774;8.732;2023-07-20T08:16:40;2.27;;;2.07;;
8001;SDS011;4046;48.774;8.732;2023-07-20T08:19:06;2.00;;;1.90;;
8001;SDS011;4046;48.774;8.732;2023-07-20T08:21:32;2.30;;;2.10;;
8001;SDS011;4046;48.774;8.732;2023-07-20T08:23:58;3.30;;;1.60;;
8001;SDS011;4046;48.774;8.732;2023-07-20T08:26:24;1.50;;;1.40;;
8001;SDS011;4046;48.774;8.732;2023-07-20T08:28:49;2.23;;;1.70;;
8001;SDS011;4046;48.774;8.732;2023-07-20T08:31:15;1.80;;;1.70;;
8001;SDS011;4046;48.774;8.732;2023-07-20T08:33:41;2.10;;;2.00;;
8001;SDS011;4046;48.774;8.732;2023-07-20T08:36:07;1.90;;;1.80;;
8001;SDS011;4046;48.774;8.732;2023-07-20T08:38:32;2.17;;;2.07;;
8001;SDS011;4046;48.774;8.732;2023-07-20T08:40:58;2.07;;;1.97;;
8001;SDS011;4046;48.774;8.732;2023-07-20T08:43:25;1.80;;;1.70;;
8001;SDS011;4046;48.774;8.732;2023-07-20T08:45:54;2.00;;;1.90;;
8001;SDS011;4046;48.774;8.732;2023-07-20T08:48:23;1.87;;;1.77;;
8001;SDS011;4046;48.774;8.732;2023-07-20T08:50:50;1.80;;;1.70;;
8001;SDS011;4046;48.774;8.732;2023-07-20T08:53:19;1.60;;;1.50;;
8001;SDS011;4046;48.774;8.732;2023-07-20T08:55:45;2.33;;;1.73;;
8001;SDS011;4046;48.774;8.732;2023-07-20T08:58:14;2.67;;;1.60;;
8001;SDS011;4046;48.774;8.732;2023-07-20T09:00:41;2.10;;;2.00;;
8001;SDS011;4046;48.774;8.732;2023-07-20T09:03:07;1.60;;;1.50;;
8001;SDS011;4046;48.774;8.732;2023-07-20T09:05:33;2.00;;;1.50;;
8001;SDS011;4046;48.774;8.732;2023-07-20T09:08:00;2.07;;;1.97;;
8001;SDS011;4046;48.774;8.732;2023-07-20T09:10:28;1.60;;;1.50;;
8001;SDS011;4046;48.774;8.732;2023-07-20T09:12:55;1.70;;;1.60;;
8001;SDS011;4046;48.774;8.732;2023-07-20T09:15:23;2.00;;;1.90;;
8001;SDS011;4046;48.774;8.732;2023-07-20T09:17:50;1.50;;;1.40;;
8001;SDS011;4046;48.774;8.732;2023-07-20T09:20:19;2.63;;;1.83;;
8001;SDS011;4046;48.774;8.732;2023-07-20T09:22:46;1.80;;;1.70;;
8001;SDS011;4046;48.774;8.732;2023-07-20T09:25:13;1.87;;;1.77;;
8001;SDS011;4046;48.774;8.732;2023-07-20T09:27:40;1.77;;;1.60;;
8001;SDS011;4046;48.774;8.732;2023-07-20T09:30:07;1.83;;;1.70;;
8001;SDS011;4046;48.774;8.732;2023-07-20T09:32:57;1.97;;;1.87;;
8001;SDS011;4046;48.774;8.732;2023-07-20T09:35:22;1.70;;;1.60;;
8001;SDS011;4046;48.774;8.732;2023-07-20T09:37:58;1.90;;;1.70;;
8001;SDS011;4046;48.774;8.732;2023-07-20T09:40:27;2.03;;;1.67;;
8001;SDS011;4046;48.774;8.732;2023-07-20T09:42:53;2.63;;;1.80;;
8001;SDS011;4046;48.774;8.732;2023-07-20T09:45:44;2.00;;;1.90;;
8001;SDS011;4046;48.774;8.732;2023-07-20T09:48:10;1.93;;;1.60;;
8001;SDS011;4046;48.774;8.732;2023-07-20T09:50:41;3.10;;;1.73;;
8001;SDS011;4046;48.774;8.732;2023-07-20T09:53:11;1.87;;;1.50;;
8001;SDS011;4046;48.774;8.732;2023-07-20T09:55:41;1.80;;;1.70;;
8001;SDS011;4046;48.774;8.732;2023-07-20T09:58:09;2.13;;;1.50;;
8001;SDS011;4046;48.774;8.732;2023-07-20T10:00:36;2.00;;;1.50;;
8001;SDS011;4046;48.774;8.732;2023-07-20T10:03:03;1.70;;;1.60;;
8001;SDS011;4046;48.774;8.732;2023-07-20T10:05:34;1.70;;;1.50;;
8001;SDS011;4046;48.774;8.732;2023-07-20T10:08:02;2.27;;;1.50;;
8001;SDS011;4046;48.774;8.732;2023-07-20T10:10:33;1.80;;;1.40;;
8001;SDS011;4046;48.774;8.732;2023-07-20T10:13:00;1.60;;;1.50;;
8001;SDS011;4046;48.774;8.732;2023-07-20T10:15:29;1.93;;;1.43;;
8001;SDS011;4046;48.774;8.732;2023-07-20T10:20:25;1.50;;;1.40;;
8001;SDS011;4046;48.774;8.732;2023-07-20T10:22:53;1.50;;;1.40;;
8001;SDS011;4046;48.774;8.732;2023-07-20T10:25:20;1.60;;;1.50;;
8001;SDS011;4046;48.774;8.732;2023-07-20T10:27:48;1.97;;;1.77;;
8001;SDS011;4046;48.774;8.732;2023-07-20T10:30:14;1.57;;;1.47;;
8001;SDS011;4046;48.774;8.732;2023-07-20T10:32:42;1.50;;;1.40;;
8001;SDS011;4046;48.774;8.732;2023-07-20T10:35:17;1.57;;;1.47;;
8001;SDS011;4046;48.774;8.732;2023-07-20T10:37:54;1.57;;;1.47;;
8001;SDS011;4046;48.774;8.732;2023-07-20T10:40:32;1.70;;;1.60;;
8001;SDS011;4046;48.774;8.732;2023-07-20T10:48:20;1.70;;;1.60;;
8001;SDS011;4046;48.774;8.732;2023-07-20T10:53:41;1.60;;;1.50;;
8001;SDS011;4046;48.774;8.732;2023-07-20T10:56:14;1.97;;;1.30;;
8001;SDS011;4046;48.774;8.732;2023-07-20T10:58:47;1.77;;;1.60;;
8001;SDS011;4046;48.774;8.732;2023-07-20T11:01:13;1.60;;;1.50;;
8001;SDS011;4046;48.774;8.732;2023-07-20T11:03:42;1.40;;;1.20;;
8001;SDS011;4046;48.774;8.732;2023-07-20T11:11:39;1.40;;;1.20;;
8001;SDS011;4046;48.774;8.732;2023-07-20T11:14:25;1.70;;;1.53;;
8001;SDS011;4046;48.774;8.732;2023-07-20T11:16:52;1.50;;;1.20;;
8001;SDS011;4046;48.774;8.732;2023-07-20T11:19:22;1.90;;;1.70;;
8001;SDS011;4046;48.774;8.732;2023-07-20T11:21:52;1.43;;;1.33;;
8001;SDS011;4046;48.774;8.732;2023-07-20T11:24:20;2.00;;;1.40;;
8001;SDS011;4046;48.774;8.732;2023-07-20T11:26:49;1.60;;;1.37;;
8001;SDS011;4046;48.774;8.732;2023-07-20T11:29:17;1.53;;;1.43;;
8001;SDS011;4046;48.774;8.732;2023-07-20T11:31:44;1.57;;;1.47;;
8001;SDS011;4046;48.774;8.732;2023-07-20T11:34:11;1.47;;;1.37;;
8001;SDS011;4046;48.774;8.732;2023-07-20T11:36:41;1.50;;;1.30;;
8001;SDS011;4046;48.774;8.732;2023-07-20T11:39:12;1.50;;;1.30;;
8001;SDS011;4046;48.774;8.732;2023-07-20T11:41:39;1.63;;;1.30;;
8001;SDS011;4046;48.774;8.732;2023-07-20T11:44:09;1.60;;;1.50;;
8001;SDS011;4046;48.774;8.732;2023-07-20T11:46:39;1.67;;;1.57;;
8001;SDS011;4046;48.774;8.732;2023-07-20T11:49:05;1.47;;;1.37;;
8001;SDS011;4046;48.774;8.732;2023-07-20T11:51:32;1.30;;;1.20;;
8001;SDS011;4046;48.774;8.732;2023-07-20T11:53:58;1.50;;;1.40;;
8001;SDS011;4046;48.774;8.732;2023-07-20T11:56:25;1.60;;;1.50;;
8001;SDS011;4046;48.774;8.732;2023-07-20T11:58:54;1.30;;;1.20;;
8001;SDS011;4046;48.774;8.732;2023-07-20T12:01:21;1.63;;;1.53;;
8001;SDS011;4046;48.774;8.732;2023-07-20T12:03:48;1.37;;;1.23;;
8001;SDS011;4046;48.774;8.732;2023-07-20T12:06:15;1.67;;;1.30;;
8001;SDS011;4046;48.774;8.732;2023-07-20T12:08:41;1.50;;;1.40;;
8001;SDS011;4046;48.774;8.732;2023-07-20T12:11:08;1.30;;;1.13;;
8001;SDS011;4046;48.774;8.732;2023-07-20T12:13:37;2.00;;;1.53;;
8001;SDS011;4046;48.774;8.732;2023-07-20T12:16:13;1.43;;;1.33;;
8001;SDS011;4046;48.774;8.732;2023-07-20T12:18:41;1.60;;;1.50;;
8001;SDS011;4046;48.774;8.732;2023-07-20T12:21:08;1.40;;;1.30;;
8001;SDS011;4046;48.774;8.732;2023-07-20T12:23:38;1.47;;;1.37;;
8001;SDS011;4046;48.774;8.732;2023-07-20T12:26:08;1.60;;;1.50;;
8001;SDS011;4046;48.774;8.732;2023-07-20T12:28:38;1.30;;;1.20;;
8001;SDS011;4046;48.774;8.732;2023-07-20T12:31:06;1.50;;;1.27;;
8001;SDS011;4046;48.774;8.732;2023-07-20T12:33:36;1.53;;;1.30;;
8001;SDS011;4046;48.774;8.732;2023-07-20T12:36:03;1.30;;;1.20;;
8001;SDS011;4046;48.774;8.732;2023-07-20T12:38:30;1.43;;;1.30;;
8001;SDS011;4046;48.774;8.732;2023-07-20T12:41:00;1.43;;;1.20;;
8001;SDS011;4046;48.774;8.732;2023-07-20T12:43:26;1.40;;;1.10;;
8001;SDS011;4046;48.774;8.732;2023-07-20T12:45:52;1.20;;;1.07;;
8001;SDS011;4046;48.774;8.732;2023-07-20T12:48:18;1.30;;;1.13;;
8001;SDS011;4046;48.774;8.732;2023-07-20T12:50:44;1.40;;;1.30;;
8001;SDS011;4046;48.774;8.732;2023-07-20T12:53:10;1.40;;;1.20;;
8001;SDS011;4046;48.774;8.732;2023-07-20T12:55:37;1.60;;;1.50;;
8001;SDS011;4046;48.774;8.732;2023-07-20T12:58:04;1.40;;;1.20;;
8001;SDS011;4046;48.774;8.732;2023-07-20T13:00:30;1.30;;;1.20;;
8001;SDS011;4046;48.774;8.732;2023-07-20T13:02:57;1.60;;;1.43;;
8001;SDS011;4046;48.774;8.732;2023-07-20T13:05:23;1.53;;;1.33;;
8001;SDS011;4046;48.774;8.732;2023-07-20T13:07:49;1.30;;;1.10;;
8001;SDS011;4046;48.774;8.732;2023-07-20T13:10:14;1.33;;;1.23;;
8001;SDS011;4046;48.774;8.732;2023-07-20T13:12:40;1.43;;;1.33;;
8001;SDS011;4046;48.774;8.732;2023-07-20T13:15:07;1.53;;;1.30;;
8001;SDS011;4046;48.774;8.732;2023-07-20T13:17:34;1.30;;;1.20;;
8001;SDS011;4046;48.774;8.732;2023-07-20T13:20:01;1.30;;;1.20;;
8001;SDS011;4046;48.774;8.732;2023-07-20T13:22:30;1.40;;;1.30;;
8001;SDS011;4046;48.774;8.732;2023-07-20T13:24:56;1.80;;;1.40;;
8001;SDS011;4046;48.774;8.732;2023-07-20T13:27:21;1.30;;;1.20;;
8001;SDS011;4046;48.774;8.732;2023-07-20T13:29:47;1.30;;;1.20;;
8001;SDS011;4046;48.774;8.732;2023-07-20T13:32:13;1.30;;;1.20;;
8001;SDS011;4046;48.774;8.732;2023-07-20T13:34:40;1.60;;;1.23;;
8001;SDS011;4046;48.774;8.732;2023-07-20T13:37:07;1.40;;;1.30;;
8001;SDS011;4046;48.774;8.732;2023-07-20T13:39:33;1.30;;;1.20;;
8001;SDS011;4046;48.774;8.732;2023-07-20T13:41:59;1.30;;;1.20;;
8001;SDS011;4046;48.774;8.732;2023-07-20T13:44:27;1.60;;;1.30;;
8001;SDS011;4046;48.774;8.732;2023-07-20T13:46:53;1.27;;;1.17;;
8001;SDS011;4046;48.774;8.732;2023-07-20T13:49:18;1.40;;;1.30;;
8001;SDS011;4046;48.774;8.732;2023-07-20T13:51:44;1.47;;;1.37;;
8001;SDS011;4046;48.774;8.732;2023-07-20T13:54:10;1.40;;;1.30;;
8001;SDS011;4046;48.774;8.732;2023-07-20T13:56:37;1.50;;;1.40;;
8001;SDS011;4046;48.774;8.732;2023-07-20T13:59:02;1.50;;;1.40;;
8001;SDS011;4046;48.774;8.732;2023-07-20T14:01:28;1.40;;;1.30;;
8001;SDS011;4046;48.774;8.732;2023-07-20T14:03:56;1.40;;;1.30;;
8001;SDS011;4046;48.774;8.732;2023-07-20T14:06:22;1.40;;;1.30;;
8001;SDS011;4046;48.774;8.732;2023-07-20T14:08:48;1.40;;;1.30;;
8001;SDS011;4046;48.774;8.732;2023-07-20T14:11:14;1.33;;;1.23;;
8001;SDS011;4046;48.774;8.732;2023-07-20T14:13:41;1.60;;;1.50;;
8001;SDS011;4046;48.774;8.732;2023-07-20T14:16:06;1.90;;;1.40;;
8001;SDS011;4046;48.774;8.732;2023-07-20T14:18:33;1.40;;;1.30;;
8001;SDS011;4046;48.774;8.732;2023-07-20T14:20:59;1.80;;;1.40;;
8001;SDS011;4046;48.774;8.732;2023-07-20T14:23:25;1.40;;;1.30;;
8001;SDS011;4046;48.774;8.732;2023-07-20T14:25:50;1.30;;;1.20;;
8001;SDS011;4046;48.774;8.732;2023-07-20T14:28:16;1.30;;;1.13;;
8001;SDS011;4046;48.774;8.732;2023-07-20T14:30:42;1.40;;;1.30;;
8001;SDS011;4046;48.774;8.732;2023-07-20T14:33:08;1.50;;;1.40;;
8001;SDS011;4046;48.774;8.732;2023-07-20T14:35:34;1.60;;;1.40;;
8001;SDS011;4046;48.774;8.732;2023-07-20T14:38:00;1.30;;;1.20;;
8001;SDS011;4046;48.774;8.732;2023-07-20T14:40:26;1.37;;;1.27;;
8001;SDS011;4046;48.774;8.732;2023-07-20T14:42:52;1.40;;;1.30;;
8001;SDS011;4046;48.774;8.732;2023-07-20T14:45:18;1.40;;;1.30;;
8001;SDS011;4046;48.774;8.732;2023-07-20T14:47:43;1.33;;;1.23;;
8001;SDS011;4046;48.774;8.732;2023-07-20T14:50:10;1.50;;;1.10;;
8001;SDS011;4046;48.774;8.732;2023-07-20T14:52:36;1.83;;;1.30;;
8001;SDS011;4046;48.774;8.732;2023-07-20T14:55:01;1.30;;;1.20;;
8001;SDS011;4046;48.774;8.732;2023-07-20T14:57:27;1.40;;;1.23;;
8001;SDS011;4046;48.774;8.732;2023-07-20T14:59:53;1.60;;;1.20;;
8001;SDS011;4046;48.774;8.732;2023-07-20T15:02:19;1.40;;;1.20;;
8001;SDS011;4046;48.774;8.732;2023-07-20T15:04:45;1.30;;;1.20;;
8001;SDS011;4046;48.774;8.732;2023-07-20T15:07:18;2.87;;;1.47;;
8001;SDS011;4046;48.774;8.732;2023-07-20T15:09:47;1.50;;;1.33;;
8001;SDS011;4046;48.774;8.732;2023-07-20T15:12:13;1.50;;;1.30;;
8001;SDS011;4046;48.774;8.732;2023-07-20T15:14:42;1.30;;;1.13;;
8001;SDS011;4046;48.774;8.732;2023-07-20T15:17:09;1.60;;;1.50;;
8001;SDS011;4046;48.774;8.732;2023-07-20T15:19:35;1.43;;;1.33;;
8001;SDS011;4046;48.774;8.732;2023-07-20T15:22:01;1.30;;;1.20;;
8001;SDS011;4046;48.774;8.732;2023-07-20T15:24:29;1.47;;;1.37;;
8001;SDS011;4046;48.774;8.732;2023-07-20T15:26:55;1.40;;;1.23;;
8001;SDS011;4046;48.774;8.732;2023-07-20T15:29:20;1.50;;;1.40;;
8001;SDS011;4046;48.774;8.732;2023-07-20T15:31:46;1.53;;;1.43;;
8001;SDS011;4046;48.774;8.732;2023-07-20T15:34:13;1.40;;;1.30;;
8001;SDS011;4046;48.774;8.732;2023-07-20T15:36:40;1.50;;;1.40;;
8001;SDS011;4046;48.774;8.732;2023-07-20T15:39:06;1.70;;;1.37;;
8001;SDS011;4046;48.774;8.732;2023-07-20T15:41:33;1.53;;;1.43;;
8001;SDS011;4046;48.774;8.732;2023-07-20T15:44:00;1.40;;;1.30;;